Time;durP1;ratioP1;P1;durP2;ratioP2;P2;SDS_P1;SDS_P2;PMS_P1;PMS_P2;Temp;Humidity;BMP_temperature;BMP_pressure;BME280_temperature;BME280_humidity;BME280_pressure;Samples;Min_cycle;Max_cycle;Signal;HPM_P1;HPM_P2
2021/12/16 00:07:34;;;;;;;;;;;;;;;3.36;80.76;100999.31;4998434;23;19935;-87
2021/12/16 00:10:22;;;;;;;;;;;;;;;3.27;81.17;101000.53;4905661;29;19928;-85
2021/12/16 02:50:14;;;;;;;;;;;;;;;3.20;82.47;100953.09;5425301;23;19931;-84
2021/12/16 02:56:25;;;;;;;;;;;;;;;3.35;82.77;100943.75;5578210;23;19932;-86
2021/12/16 02:58:56;;;;;;;;;;;;;;;3.38;82.59;100946.44;4879034;29;19931;-87
2021/12/16 03:01:47;;;;;;;;;;;;;;;3.46;82.37;100955.22;4902087;29;19936;-86
2021/12/16 03:07:20;;;;;;;;;;;;;;;3.44;82.61;100961.84;4892977;29;19934;-87
2021/12/16 03:16:48;;;;;;;;;;;;;;;3.58;82.91;100953.28;5014807;23;20058;-86
2021/12/16 03:19:37;;;;;;;;;;;;;;;3.58;82.65;100948.22;4888539;29;19928;-88
2021/12/16 03:22:34;;;;;;;;;;;;;;;;;;;;;
2021/12/16 03:25:15;;;;;;;;;;;;;;;3.71;82.43;100950.56;4887909;29;20334;-89
2021/12/16 03:38:49;;;;;;;;;;;;;;;3.74;82.78;100944.78;5020233;23;19956;-89
2021/12/16 03:41:19;;;;;;;;;;;;;;;3.73;82.66;100948.97;4889157;29;20054;-88
2021/12/16 03:43:50;;;;;;;;;;;;;;;3.81;82.86;100955.25;4887157;29;19998;-89
2021/12/16 03:50:08;;;;;;;;;;;;;;;3.83;82.41;100946.06;4870521;29;19956;-87
2021/12/16 03:52:39;;;;;;;;;;;;;;;3.83;82.35;100941.03;4861741;29;19928;-88
2021/12/16 03:55:12;;;;;;;;;;;;;;;3.79;82.39;100934.09;4843907;29;19946;-88
2021/12/16 03:57:41;;;;;;;;;;;;;;;3.83;82.36;100946.06;4846344;29;20442;-88
2021/12/16 04:00:26;;;;;;;;;;;;;;;3.80;82.15;100945.06;4832532;29;19943;-88
2021/12/16 04:03:11;;;;;;;;;;;;;;;3.81;82.26;100942.63;4847097;29;19960;-87
2021/12/16 04:06:02;;;;;;;;;;;;;;;3.84;82.67;100941.91;4847370;29;19938;-89
2021/12/16 04:08:36;;;;;;;;;;;;;;;3.88;82.18;100944.63;4857760;29;20366;-89
2021/12/16 04:11:18;;;;;;;;;;;;;;;3.91;81.81;100939.69;4849479;29;19936;-89
2021/12/16 04:14:09;;;;;;;;;;;;;;;3.91;82.71;100939.69;4849058;29;20020;-86
2021/12/16 04:16:42;;;;;;;;;;;;;;;3.92;82.74;100936.38;4831250;29;20047;-87
2021/12/16 04:19:20;;;;;;;;;;;;;;;3.96;82.62;100935.72;4848357;29;19937;-89
2021/12/16 04:21:57;;;;;;;;;;;;;;;3.91;82.23;100933.81;4853280;29;20018;-89
2021/12/16 04:24:32;;;;;;;;;;;;;;;3.92;82.21;100931.34;4808972;29;19994;-88
2021/12/16 04:27:09;;;;;;;;;;;;;;;3.94;82.25;100917.13;4807932;29;20383;-87
2021/12/16 04:29:40;;;;;;;;;;;;;;;3.99;82.35;100918.19;4781985;29;19936;-88
2021/12/16 04:32:14;;;;;;;;;;;;;;;4.03;82.86;100919.22;4808932;29;20383;-87
2021/12/16 04:34:44;;;;;;;;;;;;;;;4.03;82.22;100916.69;4811775;29;19932;-87
2021/12/16 04:37:19;;;;;;;;;;;;;;;4.04;82.49;100929.38;4761684;30;19978;-87
2021/12/16 04:39:53;;;;;;;;;;;;;;;4.08;82.20;100928.72;4792495;29;19929;-87
2021/12/16 04:42:28;;;;;;;;;;;;;;;4.12;82.46;100921.28;4808278;29;19975;-86
2021/12/16 04:45:00;;;;;;;;;;;;;;;4.07;82.41;100916.03;4779098;29;19936;-86
2021/12/16 04:47:34;;;;;;;;;;;;;;;4.11;82.60;100917.00;4808771;29;19933;-88
2021/12/16 04:50:09;;;;;;;;;;;;;;;4.12;82.43;100913.69;4825525;29;19929;-88
2021/12/16 04:52:39;;;;;;;;;;;;;;;4.14;82.44;100919.69;4795086;29;19929;-90
2021/12/16 04:55:20;;;;;;;;;;;;;;;4.14;82.34;100917.16;4811150;29;20016;-88
2021/12/16 04:57:52;;;;;;;;;;;;;;;4.16;82.16;100913.03;4825331;29;20348;-86
2021/12/16 05:00:24;;;;;;;;;;;;;;;4.18;82.22;100913.94;4826390;29;20049;-89
2021/12/16 05:03:09;;;;;;;;;;;;;;;4.18;82.31;100914.81;4849315;29;19934;-88
2021/12/16 05:05:41;;;;;;;;;;;;;;;4.17;82.51;100922.34;4883347;29;19934;-86
2021/12/16 05:08:14;;;;;;;;;;;;;;;4.15;82.27;100921.41;4882399;29;19974;-87
2021/12/16 05:15:03;;;;;;;;;;;;;;;4.08;82.50;100923.66;4884151;29;19976;-88
2021/12/16 05:17:44;;;;;;;;;;;;;;;4.02;82.30;100918.34;4882812;29;19935;-88
2021/12/16 05:20:28;;;;;;;;;;;;;;;4.00;82.51;100930.03;4838779;29;19928;-88
2021/12/16 05:27:09;;;;;;;;;;;;;;;4.00;82.33;100937.63;4870345;29;20019;-87
2021/12/16 05:29:50;;;;;;;;;;;;;;;4.01;82.25;100925.81;4837898;29;20042;-87
2021/12/16 05:32:25;;;;;;;;;;;;;;;4.00;82.56;100940.16;4883333;29;19955;-87
2021/12/16 05:34:57;;;;;;;;;;;;;;;4.05;82.61;100926.03;4866418;29;19935;-88
2021/12/16 05:37:34;;;;;;;;;;;;;;;4.08;82.31;100923.66;4865654;29;20382;-89
2021/12/16 05:40:06;;;;;;;;;;;;;;;4.07;82.27;100932.03;4867383;29;19928;-88
2021/12/16 05:43:13;;;;;;;;;;;;;;;4.11;82.10;100927.09;4858937;29;19928;-87
2021/12/16 05:45:45;;;;;;;;;;;;;;;4.08;82.18;100938.81;4857772;29;20363;-88
2021/12/16 05:48:24;;;;;;;;;;;;;;;4.05;82.22;100932.78;4881361;29;19928;-89
2021/12/16 05:50:57;;;;;;;;;;;;;;;4.07;82.41;100937.09;4882189;29;20443;-89
2021/12/16 05:53:41;;;;;;;;;;;;;;;4.11;82.54;100937.22;4893388;29;20019;-89
2021/12/16 05:56:30;;;;;;;;;;;;;;;4.07;82.10;100942.16;4901990;29;19927;-89
2021/12/16 05:59:00;;;;;;;;;;;;;;;4.10;81.98;100945.59;4858132;29;20009;-88
2021/12/16 06:01:32;;;;;;;;;;;;;;;4.08;81.95;100951.44;4884936;29;19934;-88
2021/12/16 06:04:21;;;;;;;;;;;;;;;4.01;82.42;100948.56;4853278;29;20390;-89
2021/12/16 06:06:56;;;;;;;;;;;;;;;4.05;82.52;100952.97;4881828;29;19988;-89
2021/12/16 06:09:32;;;;;;;;;;;;;;;4.06;82.43;100963.13;4884912;29;19927;-87
2021/12/16 06:12:05;;;;;;;;;;;;;;;4.07;82.70;100959.84;4885828;29;19980;-89
2021/12/16 06:14:50;;;;;;;;;;;;;;;4.11;82.36;100968.41;4872093;29;19928;-88
2021/12/16 06:26:24;;;;;;;;;;;;;;;4.19;82.52;100971.28;4903395;29;20018;-87
2021/12/16 06:28:36;;;;;;;;;;;;;;;4.18;82.66;100969.53;4878017;29;19982;-88
2021/12/16 06:31:11;;;;;;;;;;;;;;;4.20;82.95;100973.03;4842425;29;19986;-88
2021/12/16 06:33:45;;;;;;;;;;;;;;;4.25;83.01;100976.63;4880178;29;20382;-87
2021/12/16 06:36:19;;;;;;;;;;;;;;;4.25;83.21;100981.69;4884882;29;19927;-86
2021/12/16 06:39:22;;;;;;;;;;;;;;;4.31;82.94;100976.88;4895921;29;19942;-88
2021/12/16 06:46:14;;;;;;;;;;;;;;;;;;;;;
2021/12/16 06:49:04;;;;;;;;;;;;;;;4.39;82.92;100986.53;4861451;29;19927;-87
2021/12/16 06:52:23;;;;;;;;;;;;;;;4.47;83.17;100979.28;4844164;29;19928;-88
2021/12/16 06:55:40;;;;;;;;;;;;;;;4.46;82.91;100985.16;4858843;29;19947;-87
2021/12/16 06:59:01;;;;;;;;;;;;;;;;;;;;;
2021/12/16 07:02:10;;;;;;;;;;;;;;;4.54;83.09;100979.63;4864209;29;19928;-88
2021/12/16 07:04:43;;;;;;;;;;;;;;;4.53;83.07;100979.56;4844849;29;19936;-88
2021/12/16 07:07:27;;;;;;;;;;;;;;;4.51;82.78;100976.97;4849745;29;19928;-88
2021/12/16 07:09:56;;;;;;;;;;;;;;;4.61;82.92;100978.22;4849268;29;19928;-86
2021/12/16 07:12:38;;;;;;;;;;;;;;;4.62;82.81;100983.38;4849320;29;19928;-88
2021/12/16 07:15:13;;;;;;;;;;;;;;;4.60;82.73;100987.50;4830015;29;20015;-88
2021/12/16 07:17:49;;;;;;;;;;;;;;;4.57;82.89;100991.53;4864394;24;19933;-88
2021/12/16 07:20:23;;;;;;;;;;;;;;;4.49;82.64;100982.75;4891156;29;19931;-89
2021/12/16 07:22:54;;;;;;;;;;;;;;;4.50;82.95;100981.97;4899186;29;19999;-88
2021/12/16 07:25:27;;;;;;;;;;;;;;;4.57;82.93;100987.34;4906902;29;19942;-87
2021/12/16 07:27:57;;;;;;;;;;;;;;;4.65;82.97;100985.16;4907953;29;20304;-89
2021/12/16 07:30:28;;;;;;;;;;;;;;;4.69;83.13;100981.97;4891851;29;19926;-87
2021/12/16 07:33:04;;;;;;;;;;;;;;;4.78;83.15;100978.94;4884621;29;20018;-88
2021/12/16 07:35:37;;;;;;;;;;;;;;;4.82;82.83;100974.13;4914123;29;19927;-88
2021/12/16 07:38:08;;;;;;;;;;;;;;;4.91;83.32;100968.56;4906456;29;20413;-88
2021/12/16 07:40:44;;;;;;;;;;;;;;;4.97;82.63;100967.16;4891788;29;19998;-88
2021/12/16 07:45:56;;;;;;;;;;;;;;;5.10;83.06;100977.00;4919034;29;20377;-88
2021/12/16 07:48:28;;;;;;;;;;;;;;;5.19;82.88;100982.44;4923832;29;20381;-89
2021/12/16 07:51:00;;;;;;;;;;;;;;;5.18;82.81;100984.94;4899069;29;19935;-86
2021/12/16 07:53:31;;;;;;;;;;;;;;;5.18;82.88;100980.69;4901706;29;19927;-87
2021/12/16 07:56:05;;;;;;;;;;;;;;;5.25;82.69;100989.44;4923143;29;19927;-87
2021/12/16 07:58:34;;;;;;;;;;;;;;;5.28;82.72;100984.47;4921816;29;19943;-89
2021/12/16 08:01:08;;;;;;;;;;;;;;;5.31;82.63;100980.41;4886729;29;22291;-89
2021/12/16 08:03:43;;;;;;;;;;;;;;;5.37;82.65;100992.47;4920818;29;20389;-86
2021/12/16 08:06:21;;;;;;;;;;;;;;;5.37;82.54;100982.34;4921353;29;19927;-87
2021/12/16 08:08:55;;;;;;;;;;;;;;;5.38;82.84;100984.94;4911708;29;19929;-88
2021/12/16 08:11:28;;;;;;;;;;;;;;;5.41;82.42;100990.13;4893611;29;20385;-89
2021/12/16 08:14:07;;;;;;;;;;;;;;;5.24;82.43;100985.16;4906201;29;19934;-87
2021/12/16 08:21:10;;;;;;;;;;;;;;;4.73;82.90;100984.69;4920500;29;19979;-86
2021/12/16 08:28:04;;;;;;;;;;;;;;;4.92;83.32;100978.75;4915941;23;20408;-89
2021/12/16 08:30:39;;;;;;;;;;;;;;;5.15;83.85;100984.78;4902243;29;19928;-88
2021/12/16 08:33:11;;;;;;;;;;;;;;;5.30;84.16;100978.69;4870842;29;20390;-88
2021/12/16 08:35:46;;;;;;;;;;;;;;;5.40;84.00;100983.31;4902000;29;19934;-89
2021/12/16 08:38:24;;;;;;;;;;;;;;;5.58;83.83;100985.75;4886180;29;19931;-86
2021/12/16 08:40:59;;;;;;;;;;;;;;;5.74;83.80;100984.66;4885684;29;19927;-86
2021/12/16 08:43:30;;;;;;;;;;;;;;;5.82;84.05;100978.25;4886027;29;19928;-88
2021/12/16 08:45:59;;;;;;;;;;;;;;;5.74;83.73;100982.13;4855016;29;20006;-86
2021/12/16 08:48:29;;;;;;;;;;;;;;;5.73;83.71;100982.97;4869888;29;19927;-87
2021/12/16 08:50:59;;;;;;;;;;;;;;;5.71;83.28;100980.34;4882828;29;19934;-87
2021/12/16 08:53:34;;;;;;;;;;;;;;;5.73;83.23;100982.97;4886263;29;19927;-86
2021/12/16 08:56:12;;;;;;;;;;;;;;;5.63;83.60;100980.84;4902334;29;19927;-88
2021/12/16 08:58:44;;;;;;;;;;;;;;;5.63;83.46;100981.72;4901673;29;19979;-87
2021/12/16 09:01:16;;;;;;;;;;;;;;;5.87;84.04;100976.78;4886057;29;19935;-86
2021/12/16 09:03:48;;;;;;;;;;;;;;;6.10;83.85;100983.59;4886035;29;20388;-86
2021/12/16 09:06:22;;;;;;;;;;;;;;;6.26;83.82;100983.38;4901996;29;19927;-86
2021/12/16 09:08:53;;;;;;;;;;;;;;;6.45;84.02;100990.84;4856647;29;19927;-87
2021/12/16 09:11:24;;;;;;;;;;;;;;;6.51;83.62;100983.47;4871978;29;20026;-86
2021/12/16 09:13:56;;;;;;;;;;;;;;;6.59;83.63;100976.13;4887382;29;20035;-87
2021/12/16 09:16:28;;;;;;;;;;;;;;;6.62;83.72;100969.47;4904126;29;20009;-86
2021/12/16 09:18:57;;;;;;;;;;;;;;;6.85;82.88;100974.50;4904318;29;19932;-85
2021/12/16 09:21:30;;;;;;;;;;;;;;;7.01;83.15;100974.22;4875508;29;20030;-87
2021/12/16 09:24:00;;;;;;;;;;;;;;;7.09;82.44;100967.72;4907170;29;20022;-85
2021/12/16 09:26:30;;;;;;;;;;;;;;;7.13;82.55;100969.56;4905592;29;20417;-85
2021/12/16 09:29:01;;;;;;;;;;;;;;;7.18;82.38;100965.50;4910568;29;20036;-86
2021/12/16 09:31:31;;;;;;;;;;;;;;;7.28;81.77;100975.16;4908542;29;19975;-85
2021/12/16 09:34:06;;;;;;;;;;;;;;;7.32;82.14;100971.88;4906381;29;19933;-87
2021/12/16 09:36:40;;;;;;;;;;;;;;;7.37;82.52;100971.25;4922879;29;19927;-86
2021/12/16 09:39:12;;;;;;;;;;;;;;;7.45;81.44;100976.56;4920266;29;19927;-84
2021/12/16 09:41:43;;;;;;;;;;;;;;;7.53;81.92;100974.28;4920291;29;19927;-84
2021/12/16 09:44:19;;;;;;;;;;;;;;;7.60;81.41;100969.44;4903422;29;19927;-84
2021/12/16 09:46:50;;;;;;;;;;;;;;;7.66;80.56;100969.63;4919596;29;19927;-85
2021/12/16 09:49:22;;;;;;;;;;;;;;;7.72;79.87;100974.06;4918795;29;19927;-84
2021/12/16 09:51:55;;;;;;;;;;;;;;;7.78;79.98;100974.22;4920696;29;19934;-84
2021/12/16 09:54:31;;;;;;;;;;;;;;;7.83;80.13;100978.66;4923001;29;19927;-85
2021/12/16 09:57:02;;;;;;;;;;;;;;;7.87;79.45;100977.91;4921831;29;19927;-84
2021/12/16 09:59:34;;;;;;;;;;;;;;;7.93;79.25;100975.59;4922913;29;19933;-84
2021/12/16 10:02:08;;;;;;;;;;;;;;;7.95;79.18;100973.94;4922690;29;20441;-85
2021/12/16 10:04:45;;;;;;;;;;;;;;;7.93;78.64;100973.03;4928390;29;19927;-85
2021/12/16 10:07:17;;;;;;;;;;;;;;;7.97;78.23;100967.22;4919894;29;19927;-88
2021/12/16 10:09:49;;;;;;;;;;;;;;;8.02;78.54;100959.72;4918421;29;19927;-86
2021/12/16 10:12:25;;;;;;;;;;;;;;;8.03;77.79;100956.38;4902538;29;19933;-87
2021/12/16 10:17:22;;;;;;;;;;;;;;;8.04;77.39;100955.53;4919750;29;19950;-86
2021/12/16 10:18:03;;;;;;;;;;;;;;;8.07;77.33;100959.06;4919919;29;19933;-88
2021/12/16 10:20:35;;;;;;;;;;;;;;;8.11;77.27;100955.78;4919784;29;19927;-87
2021/12/16 10:23:26;;;;;;;;;;;;;;;8.09;77.49;100962.50;4919854;29;19962;-88
2021/12/16 10:25:56;;;;;;;;;;;;;;;8.13;76.72;100950.75;4918424;29;19933;-88
2021/12/16 10:28:27;;;;;;;;;;;;;;;8.17;76.84;100950.03;4911563;29;19927;-87
2021/12/16 10:31:02;;;;;;;;;;;;;;;8.22;76.94;100947.59;4885979;29;19932;-86
2021/12/16 10:33:34;;;;;;;;;;;;;;;8.26;76.53;100954.50;4900771;29;19934;-86
2021/12/16 10:36:12;;;;;;;;;;;;;;;8.25;76.01;100951.13;4884801;29;20022;-86
2021/12/16 10:38:45;;;;;;;;;;;;;;;8.32;76.36;100949.63;4901341;29;19990;-87
2021/12/16 10:41:20;;;;;;;;;;;;;;;8.36;76.87;100951.44;4899647;29;19979;-86
2021/12/16 10:43:53;;;;;;;;;;;;;;;8.40;76.42;100948.16;4902057;29;20385;-87
2021/12/16 10:46:34;;;;;;;;;;;;;;;8.45;75.69;100951.69;4884504;29;19931;-86
2021/12/16 10:49:06;;;;;;;;;;;;;;;8.45;76.15;100947.47;4902063;29;19928;-86
2021/12/16 10:51:43;;;;;;;;;;;;;;;8.50;76.28;100940.81;4885717;29;19963;-85
2021/12/16 10:54:19;;;;;;;;;;;;;;;8.62;75.36;100940.31;4900289;29;19927;-86
2021/12/16 10:56:52;;;;;;;;;;;;;;;8.73;75.46;100933.84;4900393;29;19931;-87
2021/12/16 10:59:27;;;;;;;;;;;;;;;8.82;75.38;100934.06;4884172;29;19928;-86
2021/12/16 11:02:19;;;;;;;;;;;;;;;8.93;74.82;100926.69;4884377;29;20364;-86
2021/12/16 11:04:53;;;;;;;;;;;;;;;8.99;74.14;100922.66;4869623;29;19971;-85
2021/12/16 11:07:27;;;;;;;;;;;;;;;9.07;73.81;100915.19;4870494;29;19975;-86
2021/12/16 11:09:59;;;;;;;;;;;;;;;9.07;74.27;100916.03;4884628;29;19928;-86
2021/12/16 11:12:45;;;;;;;;;;;;;;;9.12;73.18;100916.16;4886683;29;20022;-86
2021/12/16 11:15:21;;;;;;;;;;;;;;;9.15;73.13;100914.56;4887573;29;19995;-87
2021/12/16 11:18:02;;;;;;;;;;;;;;;9.11;72.49;100907.69;4883843;29;19963;-86
2021/12/16 11:20:35;;;;;;;;;;;;;;;9.11;71.66;100920.41;4869401;29;20011;-87
2021/12/16 11:23:06;;;;;;;;;;;;;;;9.08;71.44;100916.91;4884800;29;20436;-86
2021/12/16 11:25:41;;;;;;;;;;;;;;;9.06;71.11;100919.44;4902047;29;19934;-87
2021/12/16 11:28:14;;;;;;;;;;;;;;;9.05;70.67;100917.69;4878569;29;19931;-86
2021/12/16 11:30:51;;;;;;;;;;;;;;;9.11;70.70;100907.69;4919826;29;19934;-86
2021/12/16 11:33:26;;;;;;;;;;;;;;;9.17;70.50;100906.94;4917470;29;19994;-86
2021/12/16 11:36:07;;;;;;;;;;;;;;;9.27;70.06;100909.75;4917243;29;19935;-86
2021/12/16 11:38:38;;;;;;;;;;;;;;;9.29;70.00;100908.09;4918350;29;19927;-87
2021/12/16 11:41:18;;;;;;;;;;;;;;;9.34;69.48;100904.00;4918219;29;19927;-86
2021/12/16 11:43:51;;;;;;;;;;;;;;;9.37;69.33;100905.75;4917945;29;19928;-86
2021/12/16 11:46:22;;;;;;;;;;;;;;;9.26;69.70;100913.13;4886545;29;19998;-87
2021/12/16 11:49:22;;;;;;;;;;;;;;;9.20;69.20;100905.34;4902146;29;19927;-87
2021/12/16 11:51:57;;;;;;;;;;;;;;;9.17;69.57;100906.94;4917215;29;19927;-87
2021/12/16 11:54:29;;;;;;;;;;;;;;;9.20;69.94;100897.72;4917371;29;19943;-86
2021/12/16 11:57:06;;;;;;;;;;;;;;;9.26;70.16;100902.94;4916887;29;20029;-86
2021/12/16 11:59:42;;;;;;;;;;;;;;;9.39;69.90;100899.88;4917474;29;19927;-86
2021/12/16 12:02:23;;;;;;;;;;;;;;;9.39;69.66;100902.41;4901295;29;20026;-87
2021/12/16 12:05:14;;;;;;;;;;;;;;;9.43;70.03;100906.75;4918083;29;19941;-86
2021/12/16 12:07:48;;;;;;;;;;;;;;;9.38;69.76;100918.50;4917237;29;19927;-86
2021/12/16 12:10:34;;;;;;;;;;;;;;;9.40;69.99;100910.94;4926117;29;20013;-86
2021/12/16 12:13:07;;;;;;;;;;;;;;;9.60;70.68;100908.84;4917803;29;20381;-87
2021/12/16 12:15:52;;;;;;;;;;;;;;;9.73;69.68;100905.72;4916509;29;20022;-87
2021/12/16 12:18:32;;;;;;;;;;;;;;;9.76;69.29;100910.91;4901054;29;19979;-87
2021/12/16 12:21:17;;;;;;;;;;;;;;;9.64;69.02;100902.97;4915979;29;19973;-87
2021/12/16 12:23:50;;;;;;;;;;;;;;;9.47;69.23;100901.72;4916456;29;19927;-87
2021/12/16 12:26:21;;;;;;;;;;;;;;;9.45;68.99;100905.09;4917788;29;19979;-87
2021/12/16 12:28:51;;;;;;;;;;;;;;;9.38;69.12;100903.22;4916318;29;20372;-89
2021/12/16 12:31:24;;;;;;;;;;;;;;;9.45;69.61;100900.00;4916961;29;20382;-87
2021/12/16 12:33:57;;;;;;;;;;;;;;;9.41;68.97;100903.31;4917159;29;19933;-88
2021/12/16 12:36:31;;;;;;;;;;;;;;;9.30;69.07;100899.66;4916629;29;19970;-86
2021/12/16 12:39:05;;;;;;;;;;;;;;;9.30;69.35;100901.34;4916523;29;19935;-87
2021/12/16 12:41:41;;;;;;;;;;;;;;;9.22;68.92;100906.25;4919323;29;20034;-87
2021/12/16 12:44:17;;;;;;;;;;;;;;;9.20;69.18;100905.34;4904506;29;20337;-86
2021/12/16 12:46:50;;;;;;;;;;;;;;;9.12;69.60;100894.09;4919688;29;20334;-87
2021/12/16 12:49:26;;;;;;;;;;;;;;;9.09;69.51;100898.28;4919850;29;19938;-87
2021/12/16 12:52:03;;;;;;;;;;;;;;;9.07;70.06;100899.91;4921331;29;19933;-87
2021/12/16 12:54:39;;;;;;;;;;;;;;;9.02;69.88;100897.22;4920146;29;20019;-87
2021/12/16 12:57:20;;;;;;;;;;;;;;;9.00;69.50;100898.88;4919560;29;20010;-87
2021/12/16 12:59:53;;;;;;;;;;;;;;;8.96;69.81;100889.47;4924138;29;19998;-87
2021/12/16 13:02:25;;;;;;;;;;;;;;;8.95;70.08;100894.53;4926277;29;20389;-86
2021/12/16 13:04:56;;;;;;;;;;;;;;;8.98;69.94;100895.44;4923049;29;19927;-86
2021/12/16 13:07:34;;;;;;;;;;;;;;;8.93;69.38;100896.13;4921215;29;20408;-87
2021/12/16 13:10:10;;;;;;;;;;;;;;;8.96;69.24;100896.22;4904188;29;19931;-87
2021/12/16 13:12:44;;;;;;;;;;;;;;;8.97;69.58;100903.94;4919606;29;19966;-87
2021/12/16 13:15:33;;;;;;;;;;;;;;;8.92;69.62;100899.53;4921874;29;19933;-87
2021/12/16 13:24:02;;;;;;;;;;;;;;;8.83;70.58;100904.41;4920095;29;19926;-86
2021/12/16 13:26:41;;;;;;;;;;;;;;;8.74;70.04;100902.44;4920470;29;19970;-86
2021/12/16 13:29:20;;;;;;;;;;;;;;;8.73;69.80;100898.19;4903559;29;19955;-86
2021/12/16 13:32:05;;;;;;;;;;;;;;;8.73;70.03;100893.13;4919508;29;19927;-87
2021/12/16 13:34:54;;;;;;;;;;;;;;;8.71;70.58;100894.72;4920366;29;20378;-87
2021/12/16 13:37:30;;;;;;;;;;;;;;;8.62;69.90;100909.75;4919871;29;19946;-88
2021/12/16 13:40:02;;;;;;;;;;;;;;;8.53;68.96;100920.56;4919930;29;19927;-87
2021/12/16 13:42:43;;;;;;;;;;;;;;;8.48;68.62;100921.25;4918691;29;20371;-86
2021/12/16 13:45:19;;;;;;;;;;;;;;;8.46;67.79;100922.91;4918913;29;19955;-88
2021/12/16 14:02:29;;;;;;;;;;;;;;;8.27;69.49;100923.19;4918411;29;20305;-88
2021/12/16 14:05:05;;;;;;;;;;;;;;;8.34;69.67;100925.09;4918390;29;19935;-87
2021/12/16 14:08:02;;;;;;;;;;;;;;;8.38;69.82;100922.69;4902835;29;19927;-86
2021/12/16 14:10:49;;;;;;;;;;;;;;;8.41;70.27;100924.44;4918152;29;19950;-86
2021/12/16 14:16:23;;;;;;;;;;;;;;;8.41;70.43;100925.31;4919821;29;19927;-87
2021/12/16 14:31:08;;;;;;;;;;;;;;;8.27;70.60;100946.09;4919103;29;20341;-87
2021/12/16 14:31:16;;;;;;;;;;;;;;;8.22;70.91;100934.88;4900363;29;19928;-88
2021/12/16 14:42:30;;;;;;;;;;;;;;;8.05;72.26;100945.44;4862591;29;19928;-86
2021/12/16 14:45:19;;;;;;;;;;;;;;;8.07;71.87;100953.97;4877040;29;19966;-87
2021/12/16 14:48:05;;;;;;;;;;;;;;;8.04;72.21;100960.63;4864002;29;19928;-86
2021/12/16 14:50:40;;;;;;;;;;;;;;;8.03;71.50;100952.16;4863648;29;19935;-87
2021/12/16 14:53:25;;;;;;;;;;;;;;;8.06;72.44;100952.22;4879569;29;20022;-87
2021/12/16 14:55:59;;;;;;;;;;;;;;;8.05;72.10;100958.16;4849487;29;19928;-88
2021/12/16 14:58:29;;;;;;;;;;;;;;;7.98;72.14;100968.97;4863771;29;19928;-86
2021/12/16 15:01:07;;;;;;;;;;;;;;;8.03;71.84;100969.97;4849018;29;19943;-86
2021/12/16 15:03:43;;;;;;;;;;;;;;;8.05;72.26;100968.31;4821092;29;20014;-87
2021/12/16 15:06:20;;;;;;;;;;;;;;;8.04;72.37;100988.59;4833569;29;20030;-86
2021/12/16 15:08:59;;;;;;;;;;;;;;;7.99;72.18;100980.00;4879516;29;19932;-86
2021/12/16 15:11:44;;;;;;;;;;;;;;;7.96;72.54;100990.06;4848518;29;19961;-87
2021/12/16 15:14:30;;;;;;;;;;;;;;;7.86;72.73;100994.00;4866004;29;19927;-87
2021/12/16 15:17:13;;;;;;;;;;;;;;;7.77;73.48;100991.19;4882921;29;19934;-87
2021/12/16 15:39:24;;;;;;;;;;;;;;;7.74;74.07;101021.56;4868265;29;20281;-86
2021/12/16 15:44:53;;;;;;;;;;;;;;;7.75;74.69;101040.22;4900520;29;19986;-87
2021/12/16 15:47:23;;;;;;;;;;;;;;;7.78;74.70;101031.00;4868959;29;19928;-88
2021/12/16 15:49:56;;;;;;;;;;;;;;;7.81;74.52;101028.56;4901401;29;19934;-85
2021/12/16 15:52:39;;;;;;;;;;;;;;;7.74;74.57;101024.09;4901360;29;19935;-88
2021/12/16 15:55:43;;;;;;;;;;;;;;;7.74;74.54;101019.03;4817738;29;19935;-89
2021/12/16 15:58:19;;;;;;;;;;;;;;;7.77;75.52;101029.31;4834450;29;19971;-87
2021/12/16 16:00:53;;;;;;;;;;;;;;;7.73;75.49;101030.00;4832985;29;19929;-88
2021/12/16 16:03:26;;;;;;;;;;;;;;;7.78;74.91;101025.06;4832021;29;19928;-87
2021/12/16 16:06:01;;;;;;;;;;;;;;;7.69;75.03;101020.56;4830880;29;19967;-88
2021/12/16 16:08:52;;;;;;;;;;;;;;;7.72;75.86;101023.19;4811134;29;19929;-86
2021/12/16 16:11:24;;;;;;;;;;;;;;;7.77;75.74;101019.13;4878564;29;19963;-84
2021/12/16 16:14:00;;;;;;;;;;;;;;;7.80;75.31;101014.13;4880622;29;19928;-83
2021/12/16 16:16:42;;;;;;;;;;;;;;;7.81;75.57;101018.41;4883584;29;19927;-83
2021/12/16 16:19:17;;;;;;;;;;;;;;;7.82;75.71;101015.03;4867107;29;19971;-83
2021/12/16 16:21:51;;;;;;;;;;;;;;;7.71;75.64;101003.69;4866883;29;19935;-84
2021/12/16 16:24:21;;;;;;;;;;;;;;;7.73;74.87;101002.03;4883473;29;19928;-84
2021/12/16 16:26:57;;;;;;;;;;;;;;;7.67;75.10;101006.94;4883887;29;19950;-84
2021/12/16 16:29:32;;;;;;;;;;;;;;;7.71;75.61;101010.44;4868472;29;19928;-84
2021/12/16 16:32:06;;;;;;;;;;;;;;;7.65;75.25;101013.66;4883814;29;19967;-83
2021/12/16 16:34:42;;;;;;;;;;;;;;;7.61;75.88;101009.28;4883590;29;19948;-83
2021/12/16 16:37:12;;;;;;;;;;;;;;;7.53;75.17;101010.72;4883646;29;19928;-83
2021/12/16 16:39:52;;;;;;;;;;;;;;;7.52;75.23;101006.44;4883315;29;19934;-84
2021/12/16 16:42:33;;;;;;;;;;;;;;;7.46;75.99;101003.72;4883656;29;20044;-84
2021/12/16 16:45:10;;;;;;;;;;;;;;;7.50;76.31;101013.16;4883418;29;20319;-83
2021/12/16 16:47:52;;;;;;;;;;;;;;;7.48;76.03;101004.63;4866742;29;19934;-84
2021/12/16 16:50:24;;;;;;;;;;;;;;;7.44;76.14;101005.31;4883041;29;19927;-84
2021/12/16 16:53:16;;;;;;;;;;;;;;;7.41;76.32;101012.84;4856131;29;19928;-85
2021/12/16 16:55:49;;;;;;;;;;;;;;;7.30;76.61;101014.16;4883014;29;19928;-85
2021/12/16 16:58:22;;;;;;;;;;;;;;;7.29;77.07;101025.13;4866591;29;19928;-84
2021/12/16 17:00:57;;;;;;;;;;;;;;;7.19;77.66;101020.56;4866741;29;19928;-84
2021/12/16 17:03:30;;;;;;;;;;;;;;;7.23;77.41;101024.91;4883323;29;20362;-84
2021/12/16 17:06:05;;;;;;;;;;;;;;;7.30;77.33;101022.63;4851074;29;19935;-84
2021/12/16 17:08:38;;;;;;;;;;;;;;;7.32;77.39;101015.94;4882726;29;19960;-84
2021/12/16 17:11:16;;;;;;;;;;;;;;;7.34;77.52;101018.53;4883167;29;19928;-85
2021/12/16 17:13:56;;;;;;;;;;;;;;;7.31;77.98;101010.81;4866194;29;19938;-83
2021/12/16 17:19:22;;;;;;;;;;;;;;;7.29;78.09;100987.06;4865742;29;20406;-84
2021/12/16 17:21:57;;;;;;;;;;;;;;;7.25;78.44;100991.16;4882451;29;19934;-85
2021/12/16 17:24:35;;;;;;;;;;;;;;;7.29;77.42;100992.13;4882435;29;19935;-84
2021/12/16 17:27:09;;;;;;;;;;;;;;;7.32;78.42;100997.28;4882046;29;19940;-84
2021/12/16 17:29:39;;;;;;;;;;;;;;;7.37;77.60;100985.59;4883140;29;19975;-83
2021/12/16 17:32:17;;;;;;;;;;;;;;;7.39;77.74;100979.75;4882387;29;19928;-84
2021/12/16 17:34:55;;;;;;;;;;;;;;;7.34;77.67;100985.53;4882142;29;19928;-84
2021/12/16 17:37:29;;;;;;;;;;;;;;;7.30;77.25;100988.75;4882544;29;19928;-85
2021/12/16 17:40:02;;;;;;;;;;;;;;;7.30;77.79;100999.78;4882166;29;19976;-84
2021/12/16 17:42:33;;;;;;;;;;;;;;;7.28;78.09;100995.47;4882377;29;19934;-83
2021/12/16 17:45:07;;;;;;;;;;;;;;;7.28;77.60;101003.09;4850233;29;19934;-83
2021/12/16 17:47:42;;;;;;;;;;;;;;;7.29;78.28;101012.44;4882018;29;20382;-84
2021/12/16 17:50:17;;;;;;;;;;;;;;;7.26;77.08;101022.50;4882619;29;19976;-84
2021/12/16 17:52:51;;;;;;;;;;;;;;;7.13;77.53;101012.72;4865348;29;20398;-84
2021/12/16 17:55:26;;;;;;;;;;;;;;;7.06;77.44;101020.94;4882405;29;19927;-84
2021/12/16 17:58:01;;;;;;;;;;;;;;;7.04;78.22;101020.00;4865438;29;19928;-85
2021/12/16 18:00:38;;;;;;;;;;;;;;;7.02;78.02;101021.66;4881292;29;19928;-85
2021/12/16 18:03:18;;;;;;;;;;;;;;;7.10;78.64;101030.41;4881902;29;19928;-85
2021/12/16 18:05:56;;;;;;;;;;;;;;;7.12;78.12;101016.09;4881977;29;19935;-84
2021/12/16 18:08:30;;;;;;;;;;;;;;;7.13;78.61;101020.31;4865897;29;19927;-84
2021/12/16 18:11:00;;;;;;;;;;;;;;;7.19;78.79;101016.34;4878566;29;19935;-85
2021/12/16 18:13:37;;;;;;;;;;;;;;;7.27;78.58;101029.31;4864396;29;20069;-85
2021/12/16 18:16:15;;;;;;;;;;;;;;;7.31;78.78;101023.50;4879831;29;19938;-84
2021/12/16 18:18:52;;;;;;;;;;;;;;;7.42;78.93;101019.63;4864010;29;19931;-84
2021/12/16 18:21:27;;;;;;;;;;;;;;;7.43;78.75;101016.31;4879537;29;19971;-84
2021/12/16 18:24:00;;;;;;;;;;;;;;;7.42;78.68;101020.50;4848824;29;20026;-84
2021/12/16 18:26:30;;;;;;;;;;;;;;;7.47;78.93;101027.41;4863937;29;20414;-85
2021/12/16 18:29:00;;;;;;;;;;;;;;;7.51;78.50;101024.19;4879519;29;20023;-84
2021/12/16 18:31:32;;;;;;;;;;;;;;;7.58;78.83;101031.19;4879862;29;19963;-85